sensor_id;sensor_type;location;lat;lon;timestamp;temperature;humidity
68977;SHT31;56029;52.568;13.588;2023-02-28T00:00:11;-0.26;94.13
68977;SHT31;56029;52.568;13.588;2023-02-28T00:02:57;-0.26;94.31
68977;SHT31;56029;52.568;13.588;2023-02-28T00:05:24;-0.28;94.22
68977;SHT31;56029;52.568;13.588;2023-02-28T00:07:50;-0.25;94.35
68977;SHT31;56029;52.568;13.588;2023-02-28T00:10:21;-0.23;94.56
68977;SHT31;56029;52.568;13.588;2023-02-28T00:12:50;-0.22;94.27
68977;SHT31;56029;52.568;13.588;2023-02-28T00:15:16;-0.19;94.11
68977;SHT31;56029;52.568;13.588;2023-02-28T00:17:42;-0.18;94.29
68977;SHT31;56029;52.568;13.588;2023-02-28T00:20:08;-0.16;94.37
68977;SHT31;56029;52.568;13.588;2023-02-28T00:22:42;-0.16;94.64
68977;SHT31;56029;52.568;13.588;2023-02-28T00:25:10;-0.15;94.56
68977;SHT31;56029;52.568;13.588;2023-02-28T00:27:37;-0.18;94.52
68977;SHT31;56029;52.568;13.588;2023-02-28T00:30:05;-0.21;94.57
68977;SHT31;56029;52.568;13.588;2023-02-28T00:32:31;-0.19;94.81
68977;SHT31;56029;52.568;13.588;2023-02-28T00:34:57;-0.21;94.75
68977;SHT31;56029;52.568;13.588;2023-02-28T00:37:23;-0.22;94.96
68977;SHT31;56029;52.568;13.588;2023-02-28T00:39:48;-0.23;94.92
68977;SHT31;56029;52.568;13.588;2023-02-28T00:42:14;-0.25;95.00
68977;SHT31;56029;52.568;13.588;2023-02-28T00:44:39;-0.28;94.96
68977;SHT31;56029;52.568;13.588;2023-02-28T00:47:05;-0.32;95.03
68977;SHT31;56029;52.568;13.588;2023-02-28T00:49:31;-0.32;95.05
68977;SHT31;56029;52.568;13.588;2023-02-28T00:51:57;-0.36;95.32
68977;SHT31;56029;52.568;13.588;2023-02-28T00:54:23;-0.42;95.25
68977;SHT31;56029;52.568;13.588;2023-02-28T00:56:49;-0.48;95.32
68977;SHT31;56029;52.568;13.588;2023-02-28T00:59:16;-0.48;95.59
68977;SHT31;56029;52.568;13.588;2023-02-28T01:01:42;-0.56;96.06
68977;SHT31;56029;52.568;13.588;2023-02-28T01:04:08;-0.59;96.50
68977;SHT31;56029;52.568;13.588;2023-02-28T01:06:34;-0.64;96.54
68977;SHT31;56029;52.568;13.588;2023-02-28T01:09:01;-0.66;96.25
68977;SHT31;56029;52.568;13.588;2023-02-28T01:11:26;-0.69;96.44
68977;SHT31;56029;52.568;13.588;2023-02-28T01:13:52;-0.72;96.52
68977;SHT31;56029;52.568;13.588;2023-02-28T01:16:18;-0.74;96.76
68977;SHT31;56029;52.568;13.588;2023-02-28T01:18:44;-0.81;96.78
68977;SHT31;56029;52.568;13.588;2023-02-28T01:21:12;-0.88;96.96
68977;SHT31;56029;52.568;13.588;2023-02-28T01:23:39;-0.95;96.97
68977;SHT31;56029;52.568;13.588;2023-02-28T01:26:11;-1.03;97.36
68977;SHT31;56029;52.568;13.588;2023-02-28T01:28:37;-1.09;97.54
68977;SHT31;56029;52.568;13.588;2023-02-28T01:31:03;-1.15;97.65
68977;SHT31;56029;52.568;13.588;2023-02-28T01:33:28;-1.22;97.57
68977;SHT31;56029;52.568;13.588;2023-02-28T01:35:59;-1.31;97.54
68977;SHT31;56029;52.568;13.588;2023-02-28T01:38:25;-1.39;97.63
68977;SHT31;56029;52.568;13.588;2023-02-28T01:40:50;-1.45;97.89
68977;SHT31;56029;52.568;13.588;2023-02-28T01:43:28;-1.52;98.26
68977;SHT31;56029;52.568;13.588;2023-02-28T01:45:55;-1.60;98.33
68977;SHT31;56029;52.568;13.588;2023-02-28T01:48:25;-1.66;99.04
68977;SHT31;56029;52.568;13.588;2023-02-28T01:50:53;-1.67;99.10
68977;SHT31;56029;52.568;13.588;2023-02-28T01:53:27;-1.73;98.90
68977;SHT31;56029;52.568;13.588;2023-02-28T01:55:56;-1.80;99.03
68977;SHT31;56029;52.568;13.588;2023-02-28T01:58:22;-1.82;98.98
68977;SHT31;56029;52.568;13.588;2023-02-28T02:00:48;-1.84;99.21
68977;SHT31;56029;52.568;13.588;2023-02-28T02:03:16;-1.91;99.18
68977;SHT31;56029;52.568;13.588;2023-02-28T02:05:47;-1.97;98.88
68977;SHT31;56029;52.568;13.588;2023-02-28T02:08:22;-2.04;99.15
68977;SHT31;56029;52.568;13.588;2023-02-28T02:10:51;-2.11;99.32
68977;SHT31;56029;52.568;13.588;2023-02-28T02:16:16;-2.14;99.99
68977;SHT31;56029;52.568;13.588;2023-02-28T02:18:56;-2.18;99.99
68977;SHT31;56029;52.568;13.588;2023-02-28T02:24:32;-2.32;99.99
68977;SHT31;56029;52.568;13.588;2023-02-28T02:30:21;-2.45;99.99
68977;SHT31;56029;52.568;13.588;2023-02-28T02:33:03;-2.51;99.59
68977;SHT31;56029;52.568;13.588;2023-02-28T02:35:46;-2.53;99.96
68977;SHT31;56029;52.568;13.588;2023-02-28T02:38:32;-2.59;99.99
68977;SHT31;56029;52.568;13.588;2023-02-28T02:41:16;-2.61;99.99
68977;SHT31;56029;52.568;13.588;2023-02-28T02:43:48;-2.69;99.99
68977;SHT31;56029;52.568;13.588;2023-02-28T02:46:38;-2.77;99.99
68977;SHT31;56029;52.568;13.588;2023-02-28T02:49:09;-2.79;99.99
68977;SHT31;56029;52.568;13.588;2023-02-28T02:51:36;-2.83;99.99
68977;SHT31;56029;52.568;13.588;2023-02-28T02:54:08;-2.89;99.99
68977;SHT31;56029;52.568;13.588;2023-02-28T02:56:35;-2.94;99.99
68977;SHT31;56029;52.568;13.588;2023-02-28T02:59:04;-3.01;99.99
68977;SHT31;56029;52.568;13.588;2023-02-28T03:01:33;-3.10;99.99
68977;SHT31;56029;52.568;13.588;2023-02-28T03:04:07;-3.10;99.99
68977;SHT31;56029;52.568;13.588;2023-02-28T03:06:33;-3.17;99.99
68977;SHT31;56029;52.568;13.588;2023-02-28T03:09:01;-3.14;99.99
68977;SHT31;56029;52.568;13.588;2023-02-28T03:11:26;-3.18;99.99
68977;SHT31;56029;52.568;13.588;2023-02-28T03:16:51;-3.30;99.99
68977;SHT31;56029;52.568;13.588;2023-02-28T03:22:14;-3.40;99.99
68977;SHT31;56029;52.568;13.588;2023-02-28T03:27:24;-3.35;99.99
68977;SHT31;56029;52.568;13.588;2023-02-28T03:30:00;-3.31;99.99
68977;SHT31;56029;52.568;13.588;2023-02-28T03:35:14;-3.45;99.99
68977;SHT31;56029;52.568;13.588;2023-02-28T03:37:53;-3.47;99.99
68977;SHT31;56029;52.568;13.588;2023-02-28T03:40:22;-3.48;99.99
68977;SHT31;56029;52.568;13.588;2023-02-28T03:42:51;-3.54;99.99
68977;SHT31;56029;52.568;13.588;2023-02-28T03:45:26;-3.58;99.99
68977;SHT31;56029;52.568;13.588;2023-02-28T03:48:07;-3.61;99.99
68977;SHT31;56029;52.568;13.588;2023-02-28T03:50:41;-3.63;99.99
68977;SHT31;56029;52.568;13.588;2023-02-28T03:53:13;-3.65;99.99
68977;SHT31;56029;52.568;13.588;2023-02-28T03:55:45;-3.70;99.99
68977;SHT31;56029;52.568;13.588;2023-02-28T04:01:09;-3.72;99.99
68977;SHT31;56029;52.568;13.588;2023-02-28T04:03:38;-3.76;99.99
68977;SHT31;56029;52.568;13.588;2023-02-28T04:06:07;-3.70;99.99
68977;SHT31;56029;52.568;13.588;2023-02-28T04:08:33;-3.66;99.99
68977;SHT31;56029;52.568;13.588;2023-02-28T04:11:18;-3.70;99.99
68977;SHT31;56029;52.568;13.588;2023-02-28T04:13:47;-3.76;99.99
68977;SHT31;56029;52.568;13.588;2023-02-28T04:16:14;-3.82;99.99
68977;SHT31;56029;52.568;13.588;2023-02-28T04:18:39;-3.89;99.99
68977;SHT31;56029;52.568;13.588;2023-02-28T04:21:06;-3.90;99.99
68977;SHT31;56029;52.568;13.588;2023-02-28T04:23:32;-3.94;99.99
68977;SHT31;56029;52.568;13.588;2023-02-28T04:25:58;-3.96;99.99
68977;SHT31;56029;52.568;13.588;2023-02-28T04:28:24;-3.99;99.99
68977;SHT31;56029;52.568;13.588;2023-02-28T04:31:02;-4.00;99.99
68977;SHT31;56029;52.568;13.588;2023-02-28T04:33:28;-4.01;99.99
68977;SHT31;56029;52.568;13.588;2023-02-28T04:36:00;-4.01;99.99
68977;SHT31;56029;52.568;13.588;2023-02-28T04:38:25;-4.00;99.99
68977;SHT31;56029;52.568;13.588;2023-02-28T04:40:56;-4.06;99.99
68977;SHT31;56029;52.568;13.588;2023-02-28T04:43:22;-4.10;99.99
68977;SHT31;56029;52.568;13.588;2023-02-28T04:45:51;-4.11;99.99
68977;SHT31;56029;52.568;13.588;2023-02-28T04:48:17;-4.15;99.99
68977;SHT31;56029;52.568;13.588;2023-02-28T04:50:42;-4.21;99.99
68977;SHT31;56029;52.568;13.588;2023-02-28T04:53:08;-4.24;99.99
68977;SHT31;56029;52.568;13.588;2023-02-28T04:55:34;-4.28;99.99
68977;SHT31;56029;52.568;13.588;2023-02-28T04:58:00;-4.28;99.99
68977;SHT31;56029;52.568;13.588;2023-02-28T05:00:26;-4.31;99.99
68977;SHT31;56029;52.568;13.588;2023-02-28T05:02:51;-4.31;99.99
68977;SHT31;56029;52.568;13.588;2023-02-28T05:05:17;-4.31;99.99
68977;SHT31;56029;52.568;13.588;2023-02-28T05:07:46;-4.30;99.99
68977;SHT31;56029;52.568;13.588;2023-02-28T05:10:12;-4.28;99.99
68977;SHT31;56029;52.568;13.588;2023-02-28T05:12:37;-4.34;99.99
68977;SHT31;56029;52.568;13.588;2023-02-28T05:15:06;-4.35;99.99
68977;SHT31;56029;52.568;13.588;2023-02-28T05:17:31;-4.32;99.99
68977;SHT31;56029;52.568;13.588;2023-02-28T05:19:57;-4.30;99.99
68977;SHT31;56029;52.568;13.588;2023-02-28T05:22:22;-4.24;99.99
68977;SHT31;56029;52.568;13.588;2023-02-28T05:24:48;-4.30;99.99
68977;SHT31;56029;52.568;13.588;2023-02-28T05:27:13;-4.34;99.99
68977;SHT31;56029;52.568;13.588;2023-02-28T05:29:39;-4.34;99.99
68977;SHT31;56029;52.568;13.588;2023-02-28T05:32:09;-4.38;99.99
68977;SHT31;56029;52.568;13.588;2023-02-28T05:34:39;-4.44;99.99
68977;SHT31;56029;52.568;13.588;2023-02-28T05:37:05;-4.47;99.99
68977;SHT31;56029;52.568;13.588;2023-02-28T05:39:31;-4.47;99.99
68977;SHT31;56029;52.568;13.588;2023-02-28T05:41:56;-4.47;99.99
68977;SHT31;56029;52.568;13.588;2023-02-28T05:44:23;-4.47;99.99
68977;SHT31;56029;52.568;13.588;2023-02-28T05:46:48;-4.45;99.99
68977;SHT31;56029;52.568;13.588;2023-02-28T05:49:14;-4.47;99.99
68977;SHT31;56029;52.568;13.588;2023-02-28T05:51:39;-4.49;99.99
68977;SHT31;56029;52.568;13.588;2023-02-28T05:54:06;-4.54;99.99
68977;SHT31;56029;52.568;13.588;2023-02-28T05:56:32;-4.54;99.99
68977;SHT31;56029;52.568;13.588;2023-02-28T05:59:02;-4.55;99.99
68977;SHT31;56029;52.568;13.588;2023-02-28T06:01:35;-4.55;99.99
68977;SHT31;56029;52.568;13.588;2023-02-28T06:04:02;-4.55;99.99
68977;SHT31;56029;52.568;13.588;2023-02-28T06:06:31;-4.54;99.99
68977;SHT31;56029;52.568;13.588;2023-02-28T06:08:57;-4.55;99.99
68977;SHT31;56029;52.568;13.588;2023-02-28T06:11:22;-4.55;99.99
68977;SHT31;56029;52.568;13.588;2023-02-28T06:14:01;-4.57;99.99
68977;SHT31;56029;52.568;13.588;2023-02-28T06:16:31;-4.54;99.99
68977;SHT31;56029;52.568;13.588;2023-02-28T06:18:59;-4.54;99.99
68977;SHT31;56029;52.568;13.588;2023-02-28T06:21:25;-4.52;99.99
68977;SHT31;56029;52.568;13.588;2023-02-28T06:23:53;-4.47;99.99
68977;SHT31;56029;52.568;13.588;2023-02-28T06:26:19;-4.41;99.99
68977;SHT31;56029;52.568;13.588;2023-02-28T06:28:45;-4.37;99.99
68977;SHT31;56029;52.568;13.588;2023-02-28T06:31:12;-4.31;99.99
68977;SHT31;56029;52.568;13.588;2023-02-28T06:33:39;-4.30;99.99
68977;SHT31;56029;52.568;13.588;2023-02-28T06:36:08;-4.24;99.99
68977;SHT31;56029;52.568;13.588;2023-02-28T06:38:35;-4.18;99.99
68977;SHT31;56029;52.568;13.588;2023-02-28T06:41:01;-4.10;99.99
68977;SHT31;56029;52.568;13.588;2023-02-28T06:43:33;-4.07;99.99
68977;SHT31;56029;52.568;13.588;2023-02-28T06:46:01;-4.07;99.99
68977;SHT31;56029;52.568;13.588;2023-02-28T06:48:27;-4.03;99.99
68977;SHT31;56029;52.568;13.588;2023-02-28T06:51:04;-4.04;99.99
68977;SHT31;56029;52.568;13.588;2023-02-28T06:53:31;-3.99;99.99
68977;SHT31;56029;52.568;13.588;2023-02-28T06:55:56;-3.91;99.99
68977;SHT31;56029;52.568;13.588;2023-02-28T06:58:22;-3.86;99.99
68977;SHT31;56029;52.568;13.588;2023-02-28T07:00:51;-3.76;99.99
68977;SHT31;56029;52.568;13.588;2023-02-28T07:03:18;-3.72;99.99
68977;SHT31;56029;52.568;13.588;2023-02-28T07:05:44;-3.63;99.99
68977;SHT31;56029;52.568;13.588;2023-02-28T07:08:10;-3.58;99.99
68977;SHT31;56029;52.568;13.588;2023-02-28T07:10:38;-3.51;99.99
68977;SHT31;56029;52.568;13.588;2023-02-28T07:13:08;-3.40;99.99
68977;SHT31;56029;52.568;13.588;2023-02-28T07:15:35;-3.24;99.99
68977;SHT31;56029;52.568;13.588;2023-02-28T07:18:03;-3.18;99.99
68977;SHT31;56029;52.568;13.588;2023-02-28T07:20:29;-3.08;99.99
68977;SHT31;56029;52.568;13.588;2023-02-28T07:22:55;-2.94;99.99
68977;SHT31;56029;52.568;13.588;2023-02-28T07:25:26;-2.77;99.99
68977;SHT31;56029;52.568;13.588;2023-02-28T07:27:52;-2.59;99.99
68977;SHT31;56029;52.568;13.588;2023-02-28T07:30:18;-2.39;99.99
68977;SHT31;56029;52.568;13.588;2023-02-28T07:32:43;-2.21;99.57
68977;SHT31;56029;52.568;13.588;2023-02-28T07:35:09;-2.04;99.13
68977;SHT31;56029;52.568;13.588;2023-02-28T07:37:35;-1.90;98.33
68977;SHT31;56029;52.568;13.588;2023-02-28T07:40:04;-1.77;97.66
68977;SHT31;56029;52.568;13.588;2023-02-28T07:42:35;-1.72;97.30
68977;SHT31;56029;52.568;13.588;2023-02-28T07:45:01;-1.52;97.07
68977;SHT31;56029;52.568;13.588;2023-02-28T07:47:28;-1.41;96.73
68977;SHT31;56029;52.568;13.588;2023-02-28T07:49:54;-1.32;96.35
68977;SHT31;56029;52.568;13.588;2023-02-28T07:52:19;-1.25;96.34
68977;SHT31;56029;52.568;13.588;2023-02-28T07:54:45;-1.18;96.16
68977;SHT31;56029;52.568;13.588;2023-02-28T07:57:10;-1.11;96.19
68977;SHT31;56029;52.568;13.588;2023-02-28T07:59:36;-1.03;95.89
68977;SHT31;56029;52.568;13.588;2023-02-28T08:02:02;-1.00;95.27
68977;SHT31;56029;52.568;13.588;2023-02-28T08:04:27;-0.87;95.24
68977;SHT31;56029;52.568;13.588;2023-02-28T08:06:53;-0.77;94.58
68977;SHT31;56029;52.568;13.588;2023-02-28T08:09:19;-0.69;93.91
68977;SHT31;56029;52.568;13.588;2023-02-28T08:11:45;-0.59;94.04
68977;SHT31;56029;52.568;13.588;2023-02-28T08:14:10;-0.50;94.19
68977;SHT31;56029;52.568;13.588;2023-02-28T08:16:36;-0.42;93.58
68977;SHT31;56029;52.568;13.588;2023-02-28T08:19:02;-0.32;91.91
68977;SHT31;56029;52.568;13.588;2023-02-28T08:21:28;-0.28;91.36
68977;SHT31;56029;52.568;13.588;2023-02-28T08:23:53;-0.26;91.10
68977;SHT31;56029;52.568;13.588;2023-02-28T08:26:20;-0.16;90.47
68977;SHT31;56029;52.568;13.588;2023-02-28T08:28:46;-0.11;89.89
68977;SHT31;56029;52.568;13.588;2023-02-28T08:31:13;-0.01;89.16
68977;SHT31;56029;52.568;13.588;2023-02-28T08:33:40;0.10;88.43
68977;SHT31;56029;52.568;13.588;2023-02-28T08:36:07;0.19;87.07
68977;SHT31;56029;52.568;13.588;2023-02-28T08:38:34;0.27;84.69
68977;SHT31;56029;52.568;13.588;2023-02-28T08:41:03;0.39;84.38
68977;SHT31;56029;52.568;13.588;2023-02-28T08:43:31;0.47;80.49
68977;SHT31;56029;52.568;13.588;2023-02-28T08:45:57;0.57;80.23
68977;SHT31;56029;52.568;13.588;2023-02-28T08:48:23;0.67;78.73
68977;SHT31;56029;52.568;13.588;2023-02-28T08:51:01;0.78;74.21
68977;SHT31;56029;52.568;13.588;2023-02-28T08:53:27;1.18;73.16
68977;SHT31;56029;52.568;13.588;2023-02-28T08:55:58;1.33;71.06
68977;SHT31;56029;52.568;13.588;2023-02-28T08:58:23;1.29;74.67
68977;SHT31;56029;52.568;13.588;2023-02-28T09:00:50;1.35;74.56
68977;SHT31;56029;52.568;13.588;2023-02-28T09:03:15;1.36;74.87
68977;SHT31;56029;52.568;13.588;2023-02-28T09:05:52;1.44;76.25
68977;SHT31;56029;52.568;13.588;2023-02-28T09:08:17;1.63;73.17
68977;SHT31;56029;52.568;13.588;2023-02-28T09:10:43;1.63;73.59
68977;SHT31;56029;52.568;13.588;2023-02-28T09:13:08;1.73;71.05
68977;SHT31;56029;52.568;13.588;2023-02-28T09:15:37;1.80;67.46
68977;SHT31;56029;52.568;13.588;2023-02-28T09:18:02;1.91;70.19
68977;SHT31;56029;52.568;13.588;2023-02-28T09:20:28;2.07;66.11
68977;SHT31;56029;52.568;13.588;2023-02-28T09:22:54;2.14;65.09
68977;SHT31;56029;52.568;13.588;2023-02-28T09:25:19;2.07;66.72
68977;SHT31;56029;52.568;13.588;2023-02-28T09:27:45;2.26;67.41
68977;SHT31;56029;52.568;13.588;2023-02-28T09:30:11;2.17;68.75
68977;SHT31;56029;52.568;13.588;2023-02-28T09:32:37;2.18;70.33
68977;SHT31;56029;52.568;13.588;2023-02-28T09:35:03;2.26;65.16
68977;SHT31;56029;52.568;13.588;2023-02-28T09:37:28;2.24;67.17
68977;SHT31;56029;52.568;13.588;2023-02-28T09:39:55;2.48;63.43
68977;SHT31;56029;52.568;13.588;2023-02-28T09:42:26;2.43;64.84
68977;SHT31;56029;52.568;13.588;2023-02-28T09:44:55;2.50;60.98
68977;SHT31;56029;52.568;13.588;2023-02-28T09:47:34;2.45;63.76
68977;SHT31;56029;52.568;13.588;2023-02-28T09:50:35;2.63;62.13
68977;SHT31;56029;52.568;13.588;2023-02-28T09:53:06;2.63;61.97
68977;SHT31;56029;52.568;13.588;2023-02-28T09:55:43;2.62;61.84
68977;SHT31;56029;52.568;13.588;2023-02-28T09:58:19;2.66;62.78
68977;SHT31;56029;52.568;13.588;2023-02-28T10:00:55;2.63;62.54
68977;SHT31;56029;52.568;13.588;2023-02-28T10:03:29;2.57;61.76
68977;SHT31;56029;52.568;13.588;2023-02-28T10:06:05;2.63;62.87
68977;SHT31;56029;52.568;13.588;2023-02-28T10:08:40;2.70;63.05
68977;SHT31;56029;52.568;13.588;2023-02-28T10:11:12;2.67;60.93
68977;SHT31;56029;52.568;13.588;2023-02-28T10:13:51;2.69;62.54
68977;SHT31;56029;52.568;13.588;2023-02-28T10:19:03;2.81;62.78
68977;SHT31;56029;52.568;13.588;2023-02-28T10:21:48;2.94;62.55
68977;SHT31;56029;52.568;13.588;2023-02-28T10:24:19;3.03;63.34
68977;SHT31;56029;52.568;13.588;2023-02-28T10:26:47;3.05;61.72
68977;SHT31;56029;52.568;13.588;2023-02-28T10:29:13;3.01;60.57
68977;SHT31;56029;52.568;13.588;2023-02-28T10:31:39;3.15;62.12
68977;SHT31;56029;52.568;13.588;2023-02-28T10:34:05;3.08;60.74
68977;SHT31;56029;52.568;13.588;2023-02-28T10:36:32;3.21;62.99
68977;SHT31;56029;52.568;13.588;2023-02-28T10:38:57;3.28;62.29
68977;SHT31;56029;52.568;13.588;2023-02-28T10:41:31;3.22;62.58
68977;SHT31;56029;52.568;13.588;2023-02-28T10:44:22;3.18;61.64
68977;SHT31;56029;52.568;13.588;2023-02-28T10:46:50;3.12;63.27
68977;SHT31;56029;52.568;13.588;2023-02-28T10:49:23;3.46;60.99
68977;SHT31;56029;52.568;13.588;2023-02-28T10:51:54;3.48;60.95
68977;SHT31;56029;52.568;13.588;2023-02-28T10:54:42;3.60;60.39
68977;SHT31;56029;52.568;13.588;2023-02-28T10:57:16;3.54;59.48
68977;SHT31;56029;52.568;13.588;2023-02-28T10:59:43;3.49;59.88
68977;SHT31;56029;52.568;13.588;2023-02-28T11:02:29;3.43;60.43
68977;SHT31;56029;52.568;13.588;2023-02-28T11:04:55;3.42;58.67
68977;SHT31;56029;52.568;13.588;2023-02-28T11:07:22;3.52;60.14
68977;SHT31;56029;52.568;13.588;2023-02-28T11:09:50;3.52;62.11
68977;SHT31;56029;52.568;13.588;2023-02-28T11:12:26;3.56;60.13
68977;SHT31;56029;52.568;13.588;2023-02-28T11:14:57;3.68;59.44
68977;SHT31;56029;52.568;13.588;2023-02-28T11:17:30;3.65;61.31
68977;SHT31;56029;52.568;13.588;2023-02-28T11:20:04;3.62;59.93
68977;SHT31;56029;52.568;13.588;2023-02-28T11:22:38;3.49;60.47
68977;SHT31;56029;52.568;13.588;2023-02-28T11:25:26;3.63;60.42
68977;SHT31;56029;52.568;13.588;2023-02-28T11:27:54;3.60;59.98
68977;SHT31;56029;52.568;13.588;2023-02-28T11:30:40;3.70;60.62
68977;SHT31;56029;52.568;13.588;2023-02-28T11:33:32;3.75;60.47
68977;SHT31;56029;52.568;13.588;2023-02-28T11:36:02;3.83;59.55
68977;SHT31;56029;52.568;13.588;2023-02-28T11:38:28;3.85;60.58
68977;SHT31;56029;52.568;13.588;2023-02-28T11:51:47;4.16;59.16
68977;SHT31;56029;52.568;13.588;2023-02-28T12:05:51;4.17;60.54
68977;SHT31;56029;52.568;13.588;2023-02-28T12:11:15;4.14;58.70
68977;SHT31;56029;52.568;13.588;2023-02-28T12:19:19;4.45;57.89
68977;SHT31;56029;52.568;13.588;2023-02-28T12:24:38;4.31;56.55
68977;SHT31;56029;52.568;13.588;2023-02-28T12:27:10;4.31;57.69
68977;SHT31;56029;52.568;13.588;2023-02-28T12:29:52;4.28;57.15
68977;SHT31;56029;52.568;13.588;2023-02-28T12:32:27;4.37;59.42
68977;SHT31;56029;52.568;13.588;2023-02-28T12:35:01;4.42;59.10
68977;SHT31;56029;52.568;13.588;2023-02-28T12:37:33;4.52;58.47
68977;SHT31;56029;52.568;13.588;2023-02-28T12:40:05;4.64;59.15
68977;SHT31;56029;52.568;13.588;2023-02-28T12:42:35;4.59;58.08
68977;SHT31;56029;52.568;13.588;2023-02-28T12:45:10;4.65;57.74
68977;SHT31;56029;52.568;13.588;2023-02-28T12:47:40;4.68;56.72
68977;SHT31;56029;52.568;13.588;2023-02-28T12:50:11;4.61;58.21
68977;SHT31;56029;52.568;13.588;2023-02-28T12:52:44;4.58;58.06
68977;SHT31;56029;52.568;13.588;2023-02-28T12:57:55;4.59;57.90
68977;SHT31;56029;52.568;13.588;2023-02-28T13:00:31;4.58;57.85
68977;SHT31;56029;52.568;13.588;2023-02-28T13:03:32;4.59;57.17
68977;SHT31;56029;52.568;13.588;2023-02-28T13:06:41;4.57;57.29
68977;SHT31;56029;52.568;13.588;2023-02-28T13:09:11;4.64;57.63
68977;SHT31;56029;52.568;13.588;2023-02-28T13:11:48;4.64;55.75
68977;SHT31;56029;52.568;13.588;2023-02-28T13:19:27;4.65;57.80
68977;SHT31;56029;52.568;13.588;2023-02-28T13:21:53;4.68;59.29
68977;SHT31;56029;52.568;13.588;2023-02-28T13:24:47;4.64;56.98
68977;SHT31;56029;52.568;13.588;2023-02-28T13:29:41;4.59;56.04
68977;SHT31;56029;52.568;13.588;2023-02-28T13:34:35;4.49;58.00
68977;SHT31;56029;52.568;13.588;2023-02-28T13:37:33;4.49;56.44
68977;SHT31;56029;52.568;13.588;2023-02-28T13:40:29;4.51;58.59
68977;SHT31;56029;52.568;13.588;2023-02-28T13:42:54;4.57;58.03
68977;SHT31;56029;52.568;13.588;2023-02-28T13:45:28;4.59;58.59
68977;SHT31;56029;52.568;13.588;2023-02-28T13:48:03;4.58;57.23
68977;SHT31;56029;52.568;13.588;2023-02-28T13:50:32;4.48;55.68
68977;SHT31;56029;52.568;13.588;2023-02-28T13:58:41;4.54;56.68
68977;SHT31;56029;52.568;13.588;2023-02-28T14:04:02;4.58;57.39
68977;SHT31;56029;52.568;13.588;2023-02-28T14:06:35;4.59;56.54
68977;SHT31;56029;52.568;13.588;2023-02-28T14:09:03;4.58;57.21
68977;SHT31;56029;52.568;13.588;2023-02-28T14:11:38;4.66;56.93
68977;SHT31;56029;52.568;13.588;2023-02-28T14:14:06;4.61;58.21
68977;SHT31;56029;52.568;13.588;2023-02-28T14:16:45;4.64;57.30
68977;SHT31;56029;52.568;13.588;2023-02-28T14:19:15;4.52;57.08
68977;SHT31;56029;52.568;13.588;2023-02-28T14:25:17;4.68;59.10
68977;SHT31;56029;52.568;13.588;2023-02-28T14:30:36;4.68;57.92
68977;SHT31;56029;52.568;13.588;2023-02-28T14:33:22;4.73;58.05
68977;SHT31;56029;52.568;13.588;2023-02-28T14:36:08;4.85;57.57
68977;SHT31;56029;52.568;13.588;2023-02-28T14:41:38;4.66;57.49
68977;SHT31;56029;52.568;13.588;2023-02-28T14:44:20;4.62;57.29
68977;SHT31;56029;52.568;13.588;2023-02-28T14:46:49;4.66;58.29
68977;SHT31;56029;52.568;13.588;2023-02-28T14:49:19;4.58;56.89
68977;SHT31;56029;52.568;13.588;2023-02-28T14:51:46;4.49;58.09
68977;SHT31;56029;52.568;13.588;2023-02-28T14:54:15;4.55;58.70
68977;SHT31;56029;52.568;13.588;2023-02-28T14:56:41;4.55;59.97
68977;SHT31;56029;52.568;13.588;2023-02-28T14:59:27;4.52;57.82
68977;SHT31;56029;52.568;13.588;2023-02-28T15:02:14;4.58;57.22
68977;SHT31;56029;52.568;13.588;2023-02-28T15:04:40;4.54;57.99
68977;SHT31;56029;52.568;13.588;2023-02-28T15:07:13;4.52;58.32
68977;SHT31;56029;52.568;13.588;2023-02-28T15:09:39;4.49;58.42
68977;SHT31;56029;52.568;13.588;2023-02-28T15:12:05;4.57;56.92
68977;SHT31;56029;52.568;13.588;2023-02-28T15:14:31;4.59;57.35
68977;SHT31;56029;52.568;13.588;2023-02-28T15:17:05;4.54;56.61
68977;SHT31;56029;52.568;13.588;2023-02-28T15:19:36;4.48;56.78
68977;SHT31;56029;52.568;13.588;2023-02-28T15:22:06;4.44;56.20
68977;SHT31;56029;52.568;13.588;2023-02-28T15:24:43;4.44;57.73
68977;SHT31;56029;52.568;13.588;2023-02-28T15:27:17;4.45;57.53
68977;SHT31;56029;52.568;13.588;2023-02-28T15:29:53;4.38;59.18
68977;SHT31;56029;52.568;13.588;2023-02-28T15:34:50;4.36;60.22
68977;SHT31;56029;52.568;13.588;2023-02-28T15:42:41;4.20;60.98
68977;SHT31;56029;52.568;13.588;2023-02-28T15:45:32;4.14;58.88
68977;SHT31;56029;52.568;13.588;2023-02-28T15:48:00;4.14;59.71
68977;SHT31;56029;52.568;13.588;2023-02-28T15:50:27;4.13;61.68
68977;SHT31;56029;52.568;13.588;2023-02-28T15:52:53;4.13;59.18
68977;SHT31;56029;52.568;13.588;2023-02-28T15:55:21;4.10;61.59
68977;SHT31;56029;52.568;13.588;2023-02-28T15:57:52;4.11;60.31
68977;SHT31;56029;52.568;13.588;2023-02-28T16:00:21;4.04;61.57
68977;SHT31;56029;52.568;13.588;2023-02-28T16:02:47;3.97;61.32
68977;SHT31;56029;52.568;13.588;2023-02-28T16:05:27;3.94;61.93
68977;SHT31;56029;52.568;13.588;2023-02-28T16:07:57;3.83;62.73
68977;SHT31;56029;52.568;13.588;2023-02-28T16:10:24;3.70;63.15
68977;SHT31;56029;52.568;13.588;2023-02-28T16:12:53;3.66;63.43
68977;SHT31;56029;52.568;13.588;2023-02-28T16:15:22;3.55;63.61
68977;SHT31;56029;52.568;13.588;2023-02-28T16:17:48;3.48;64.56
68977;SHT31;56029;52.568;13.588;2023-02-28T16:20:18;3.39;64.14
68977;SHT31;56029;52.568;13.588;2023-02-28T16:22:44;3.31;65.00
68977;SHT31;56029;52.568;13.588;2023-02-28T16:25:19;3.31;65.38
68977;SHT31;56029;52.568;13.588;2023-02-28T16:27:48;3.11;65.95
68977;SHT31;56029;52.568;13.588;2023-02-28T16:30:22;3.00;67.04
68977;SHT31;56029;52.568;13.588;2023-02-28T16:32:49;2.89;68.11
68977;SHT31;56029;52.568;13.588;2023-02-28T16:35:15;2.75;68.55
68977;SHT31;56029;52.568;13.588;2023-02-28T16:37:41;2.63;69.84
68977;SHT31;56029;52.568;13.588;2023-02-28T16:40:20;2.50;69.58
68977;SHT31;56029;52.568;13.588;2023-02-28T16:42:48;2.41;71.12
68977;SHT31;56029;52.568;13.588;2023-02-28T16:45:17;2.32;71.62
68977;SHT31;56029;52.568;13.588;2023-02-28T16:47:44;2.20;71.87
68977;SHT31;56029;52.568;13.588;2023-02-28T16:50:17;2.10;72.92
68977;SHT31;56029;52.568;13.588;2023-02-28T16:52:42;1.97;73.15
68977;SHT31;56029;52.568;13.588;2023-02-28T16:55:08;1.90;74.02
68977;SHT31;56029;52.568;13.588;2023-02-28T16:57:34;1.80;74.63
68977;SHT31;56029;52.568;13.588;2023-02-28T17:00:00;1.68;74.33
68977;SHT31;56029;52.568;13.588;2023-02-28T17:02:25;1.59;74.92
68977;SHT31;56029;52.568;13.588;2023-02-28T17:04:51;1.49;75.16
68977;SHT31;56029;52.568;13.588;2023-02-28T17:07:16;1.40;75.97
68977;SHT31;56029;52.568;13.588;2023-02-28T17:09:43;1.31;76.65
68977;SHT31;56029;52.568;13.588;2023-02-28T17:12:09;1.21;76.84
68977;SHT31;56029;52.568;13.588;2023-02-28T17:14:37;1.13;77.72
68977;SHT31;56029;52.568;13.588;2023-02-28T17:17:05;1.04;77.93